Terminal Aerodrome Forecast
Issued by NWS

Home | Current Version | Previous Version | Text Only | Print | Product List | Glossary On
Versions: 1 2 3 4 5 6 7 8 9 10 11 12 13 14 15 16 17 18
000
FTUS43 KMQT 040520
TAFSAW
TAF
KSAW 040520Z 0406/0506 30013G22KT P6SM -SHSN BKN030
     FM041500 29013G21KT P6SM -SHSN BKN025
     FM042300 30007KT P6SM BKN035=

USA.gov is the U.S. government's official web portal to all federal, state and local government web resources and services.